Time;durP1;ratioP1;P1;durP2;ratioP2;P2;SDS_P1;SDS_P2;PMS_P1;PMS_P2;Temp;Humidity;BMP_temperature;BMP_pressure;BME280_temperature;BME280_humidity;BME280_pressure;Samples;Min_cycle;Max_cycle;Signal;HPM_P1;HPM_P2
2020/12/24 00:02:02;;;;;;;63.47;24.20;;;8.20;99.90;;;;;;5059411;28;20028;-56
2020/12/24 00:04:27;;;;;;;67.05;24.20;;;8.30;99.90;;;;;;5060427;28;20146;-55
2020/12/24 00:06:53;;;;;;;63.20;22.85;;;8.30;99.90;;;;;;5061748;28;20037;-55
2020/12/24 00:09:19;;;;;;;60.45;22.95;;;8.30;99.90;;;;;;5053627;28;20072;-57
2020/12/24 00:11:45;;;;;;;58.78;23.00;;;8.30;99.90;;;;;;5062390;28;20391;-57
2020/12/24 00:14:10;;;;;;;65.20;24.73;;;8.30;99.90;;;;;;5057145;28;20476;-56
2020/12/24 00:16:36;;;;;;;66.53;24.42;;;8.30;99.90;;;;;;5060129;28;20028;-54
2020/12/24 00:19:02;;;;;;;47.97;22.52;;;8.30;99.90;;;;;;5069506;28;20032;-56
2020/12/24 00:21:28;;;;;;;50.95;22.15;;;8.30;99.90;;;;;;5060710;28;20031;-53
2020/12/24 00:23:54;;;;;;;53.25;21.02;;;8.30;99.90;;;;;;5049308;28;20025;-56
2020/12/24 00:26:19;;;;;;;84.57;30.27;;;8.30;99.90;;;;;;5058677;28;20111;-57
2020/12/24 00:28:45;;;;;;;63.92;25.38;;;8.30;99.90;;;;;;5054572;28;20041;-56
2020/12/24 00:31:11;;;;;;;56.03;22.73;;;8.20;99.90;;;;;;5050338;28;20033;-55
2020/12/24 00:33:39;;;;;;;55.35;21.38;;;8.20;99.90;;;;;;5067771;28;20119;-58
2020/12/24 00:36:05;;;;;;;63.97;20.52;;;8.20;99.90;;;;;;5061284;28;20025;-57
2020/12/24 00:38:31;;;;;;;47.10;19.63;;;8.30;99.90;;;;;;5057861;28;20373;-58
2020/12/24 00:40:57;;;;;;;54.85;21.38;;;8.20;99.90;;;;;;5059290;28;20502;-52
2020/12/24 00:43:22;;;;;;;48.97;21.35;;;8.20;99.90;;;;;;5067123;28;20588;-56
2020/12/24 00:45:48;;;;;;;56.88;20.35;;;8.20;99.90;;;;;;5060442;28;20032;-55
2020/12/24 00:48:14;;;;;;;64.72;22.55;;;8.20;99.90;;;;;;5066176;28;20024;-54
2020/12/24 00:50:40;;;;;;;59.95;23.08;;;8.20;99.90;;;;;;5067038;28;20534;-56
2020/12/24 00:53:05;;;;;;;62.83;23.05;;;8.20;99.90;;;;;;5067761;28;20543;-55
2020/12/24 00:55:31;;;;;;;54.75;23.40;;;8.20;99.90;;;;;;5061983;28;20442;-57
2020/12/24 00:57:57;;;;;;;58.95;23.55;;;8.30;99.90;;;;;;5052426;28;20051;-56
2020/12/24 01:00:22;;;;;;;65.97;23.92;;;8.20;99.90;;;;;;5048323;28;20116;-52
2020/12/24 01:02:48;;;;;;;67.93;22.48;;;8.20;99.90;;;;;;5049421;28;20025;-54
2020/12/24 01:05:14;;;;;;;65.97;23.73;;;8.20;99.90;;;;;;5057453;28;20028;-51
2020/12/24 01:07:40;;;;;;;65.25;22.75;;;8.30;99.90;;;;;;5061527;28;20077;-52
2020/12/24 01:10:09;;;;;;;57.72;21.50;;;8.20;99.90;;;;;;5064638;28;20442;-55
2020/12/24 01:12:35;;;;;;;55.75;20.80;;;8.30;99.90;;;;;;5048180;28;20036;-57
2020/12/24 01:15:04;;;;;;;53.65;22.40;;;8.20;99.90;;;;;;5050881;28;20021;-55
2020/12/24 01:17:30;;;;;;;68.00;21.98;;;8.30;99.90;;;;;;5048091;28;20082;-58
2020/12/24 01:19:56;;;;;;;74.43;24.45;;;8.30;99.90;;;;;;5048747;28;20032;-58
2020/12/24 01:22:22;;;;;;;52.20;21.15;;;8.30;99.90;;;;;;5049785;28;20045;-49
2020/12/24 01:24:48;;;;;;;54.95;21.90;;;8.30;99.90;;;;;;5067597;28;20487;-52
2020/12/24 01:27:13;;;;;;;50.40;21.00;;;8.30;99.90;;;;;;5065299;28;20103;-53
2020/12/24 01:29:39;;;;;;;57.70;20.13;;;8.30;99.90;;;;;;5066696;28;20040;-54
2020/12/24 01:32:05;;;;;;;47.25;20.60;;;8.20;99.90;;;;;;5067355;28;20419;-57
2020/12/24 01:34:31;;;;;;;52.78;21.20;;;8.30;99.90;;;;;;5056604;28;20512;-56
2020/12/24 01:37:01;;;;;;;54.70;20.67;;;8.30;99.90;;;;;;5046963;28;20383;-55
2020/12/24 01:39:27;;;;;;;60.10;22.13;;;8.30;99.90;;;;;;5045905;28;20051;-58
2020/12/24 01:41:53;;;;;;;58.55;21.42;;;8.20;99.90;;;;;;5046312;28;21828;-58
2020/12/24 01:44:18;;;;;;;72.45;23.30;;;8.30;99.90;;;;;;5046149;28;20033;-54
2020/12/24 01:46:44;;;;;;;60.05;22.58;;;8.20;99.90;;;;;;5047182;28;20396;-53
2020/12/24 01:49:10;;;;;;;65.53;21.50;;;8.30;99.90;;;;;;5061055;28;20484;-55
2020/12/24 01:51:36;;;;;;;53.40;20.83;;;8.30;99.90;;;;;;5065853;28;20032;-57
2020/12/24 01:54:03;;;;;;;61.63;21.13;;;8.30;99.90;;;;;;5060799;28;20029;-53
2020/12/24 01:56:30;;;;;;;63.80;22.15;;;8.30;99.90;;;;;;5029903;28;20530;-53
2020/12/24 01:58:56;;;;;;;58.50;23.05;;;8.30;99.90;;;;;;5047853;28;20060;-53
2020/12/24 02:01:21;;;;;;;77.63;23.80;;;8.30;99.90;;;;;;5051576;28;20581;-54
2020/12/24 02:03:48;;;;;;;72.70;23.88;;;8.20;99.90;;;;;;5047679;28;20029;-53
2020/12/24 02:06:14;;;;;;;55.47;22.23;;;8.20;99.90;;;;;;5049108;28;20028;-55
2020/12/24 02:08:40;;;;;;;57.72;19.67;;;8.30;99.90;;;;;;5047872;28;20127;-54
2020/12/24 02:11:09;;;;;;;59.28;20.20;;;8.30;99.90;;;;;;5048090;28;20121;-58
2020/12/24 02:13:35;;;;;;;68.13;22.35;;;8.30;99.90;;;;;;5051511;28;20037;-57
2020/12/24 02:16:01;;;;;;;56.30;20.23;;;8.30;99.90;;;;;;5062440;28;20059;-54
2020/12/24 02:18:26;;;;;;;61.97;22.17;;;8.30;99.90;;;;;;5054352;28;20064;-55
2020/12/24 02:20:52;;;;;;;61.40;22.67;;;8.30;99.90;;;;;;5050886;28;20028;-54
2020/12/24 02:23:18;;;;;;;59.95;20.27;;;8.30;99.90;;;;;;5051407;28;20095;-52
2020/12/24 02:25:44;;;;;;;45.65;19.08;;;8.30;99.90;;;;;;5051579;28;20032;-56
2020/12/24 02:28:10;;;;;;;63.75;22.75;;;8.30;99.90;;;;;;5051357;28;20547;-57
2020/12/24 02:30:37;;;;;;;56.85;21.45;;;8.30;99.90;;;;;;5051463;28;20075;-53
2020/12/24 02:33:04;;;;;;;61.70;21.85;;;8.30;99.90;;;;;;5051551;28;20512;-52
2020/12/24 02:35:30;;;;;;;58.08;21.80;;;8.30;99.90;;;;;;5055829;28;20105;-53
2020/12/24 02:37:56;;;;;;;53.55;20.42;;;8.30;99.90;;;;;;5057331;28;20025;-55
2020/12/24 02:40:22;;;;;;;60.78;22.17;;;8.30;99.90;;;;;;5051389;28;20037;-53
2020/12/24 02:42:47;;;;;;;55.65;21.08;;;8.30;99.90;;;;;;5051347;28;20052;-55
2020/12/24 02:45:13;;;;;;;50.00;20.60;;;8.30;99.90;;;;;;5050977;28;20106;-52
2020/12/24 02:47:39;;;;;;;64.90;22.38;;;8.30;99.90;;;;;;5051171;28;20052;-57
2020/12/24 02:50:07;;;;;;;73.55;24.17;;;8.30;99.90;;;;;;5051201;28;20037;-56
2020/12/24 02:52:33;;;;;;;62.03;22.35;;;8.30;99.90;;;;;;5051393;28;20060;-51
2020/12/24 02:55:00;;;;;;;69.55;22.38;;;8.30;99.90;;;;;;5051009;28;20036;-56
2020/12/24 02:57:26;;;;;;;68.03;21.63;;;8.30;99.90;;;;;;5050774;28;20086;-57
2020/12/24 02:59:52;;;;;;;76.30;24.30;;;8.30;99.90;;;;;;5050826;28;20050;-54
2020/12/24 03:02:17;;;;;;;69.72;22.05;;;8.30;99.90;;;;;;5050913;28;20439;-55
2020/12/24 03:04:43;;;;;;;78.35;24.50;;;8.30;99.90;;;;;;5050815;28;20033;-54
2020/12/24 03:09:44;;;;;;;65.35;22.50;;;8.30;99.90;;;;;;4909102;22;20052;-56
2020/12/24 03:12:11;;;;;;;85.85;25.63;;;8.30;99.90;;;;;;5070768;28;20467;-53
2020/12/24 03:14:37;;;;;;;70.95;25.30;;;8.30;99.90;;;;;;5070498;28;20032;-56
2020/12/24 03:17:03;;;;;;;74.82;26.15;;;8.20;99.90;;;;;;5070871;28;20028;-57
2020/12/24 03:19:29;;;;;;;81.60;22.90;;;8.30;99.90;;;;;;5070448;28;20545;-56
2020/12/24 03:21:54;;;;;;;80.75;25.67;;;8.30;99.90;;;;;;5070583;28;20028;-54
2020/12/24 03:24:20;;;;;;;72.45;23.90;;;8.30;99.90;;;;;;5070773;28;20405;-55
2020/12/24 03:26:46;;;;;;;68.45;23.92;;;8.30;99.90;;;;;;5070439;28;20036;-54
2020/12/24 03:29:11;;;;;;;70.70;22.52;;;8.30;99.90;;;;;;5070677;28;20036;-54
2020/12/24 03:31:37;;;;;;;73.95;23.25;;;8.30;99.90;;;;;;5070549;28;20082;-52
2020/12/24 03:34:03;;;;;;;79.32;20.70;;;8.30;99.90;;;;;;5070501;28;20036;-53
2020/12/24 03:36:29;;;;;;;67.18;21.40;;;8.30;99.90;;;;;;5070255;28;20140;-55
2020/12/24 03:38:54;;;;;;;75.60;22.15;;;8.30;99.90;;;;;;5070325;28;20029;-53
2020/12/24 03:41:20;;;;;;;75.28;21.98;;;8.30;99.90;;;;;;5070187;28;20028;-54
2020/12/24 03:43:46;;;;;;;62.15;20.85;;;8.30;99.90;;;;;;5069898;28;20124;-53
2020/12/24 03:46:11;;;;;;;71.82;21.02;;;8.30;99.90;;;;;;5070054;28;20032;-55
2020/12/24 03:48:37;;;;;;;86.63;23.95;;;8.30;99.90;;;;;;5070180;28;20085;-55
2020/12/24 03:51:03;;;;;;;71.15;20.25;;;8.30;99.90;;;;;;5069981;28;20146;-53
2020/12/24 03:53:29;;;;;;;58.22;19.10;;;8.30;99.90;;;;;;5070013;28;20048;-53
2020/12/24 03:55:54;;;;;;;77.20;22.85;;;8.30;99.90;;;;;;5069924;28;20024;-55
2020/12/24 03:58:20;;;;;;;64.43;21.80;;;8.30;99.90;;;;;;5069709;28;20029;-51
2020/12/24 04:00:46;;;;;;;64.93;21.95;;;8.30;99.90;;;;;;5069786;28;20573;-55
2020/12/24 04:03:12;;;;;;;71.60;21.77;;;8.30;99.90;;;;;;5069867;28;20033;-55
2020/12/24 04:05:37;;;;;;;58.83;20.98;;;8.20;99.90;;;;;;5069804;28;20085;-55
2020/12/24 04:08:05;;;;;;;58.50;19.88;;;8.20;99.90;;;;;;5069932;28;20035;-55
2020/12/24 04:10:31;;;;;;;60.55;21.15;;;8.20;99.90;;;;;;5069692;28;20514;-53
2020/12/24 04:12:57;;;;;;;53.75;17.80;;;8.20;99.90;;;;;;5069789;28;20036;-56
2020/12/24 04:15:22;;;;;;;46.75;16.77;;;8.20;99.90;;;;;;5069888;28;20028;-55
2020/12/24 04:17:48;;;;;;;41.63;15.20;;;8.20;99.90;;;;;;5069407;28;20393;-54
2020/12/24 04:20:15;;;;;;;46.92;15.77;;;8.20;99.90;;;;;;5034951;28;20036;-54
2020/12/24 04:22:40;;;;;;;60.35;16.70;;;8.20;99.90;;;;;;5069405;28;20094;-54
2020/12/24 04:25:06;;;;;;;59.35;15.30;;;8.20;99.90;;;;;;5069448;28;20032;-55
2020/12/24 04:27:32;;;;;;;41.22;15.13;;;8.10;99.90;;;;;;5069202;28;20494;-52
2020/12/24 04:29:58;;;;;;;47.65;15.80;;;8.10;99.90;;;;;;5069355;28;20040;-55
2020/12/24 04:32:23;;;;;;;57.10;17.17;;;8.10;99.90;;;;;;5069356;28;20066;-53
2020/12/24 04:34:49;;;;;;;42.40;15.77;;;8.10;99.90;;;;;;5068821;28;20029;-55
2020/12/24 04:37:18;;;;;;;42.38;15.40;;;8.10;99.90;;;;;;5069292;28;20033;-54
2020/12/24 04:39:45;;;;;;;39.08;15.15;;;8.10;99.90;;;;;;5069076;28;20205;-55
2020/12/24 04:42:13;;;;;;;44.30;16.05;;;8.10;99.90;;;;;;5069195;28;20024;-54
2020/12/24 04:44:41;;;;;;;42.45;15.73;;;8.10;99.90;;;;;;5069169;28;20742;-50
2020/12/24 04:47:08;;;;;;;48.03;16.50;;;8.10;99.90;;;;;;5069057;28;20036;-50
2020/12/24 04:49:34;;;;;;;54.65;17.33;;;8.10;99.90;;;;;;5069048;28;20036;-52
2020/12/24 04:52:01;;;;;;;50.70;18.05;;;8.00;99.90;;;;;;5068873;28;20036;-51
2020/12/24 04:54:27;;;;;;;41.03;16.40;;;8.00;99.90;;;;;;5068707;28;20035;-53
2020/12/24 04:56:53;;;;;;;73.30;20.45;;;8.00;99.90;;;;;;5068981;28;20039;-53
2020/12/24 04:59:20;;;;;;;86.90;17.50;;;8.00;99.90;;;;;;5069018;28;20126;-57
2020/12/24 05:01:53;;;;;;;57.17;18.67;;;8.00;99.90;;;;;;5068868;28;20040;-54
2020/12/24 05:04:19;;;;;;;61.83;18.95;;;8.00;99.90;;;;;;5069288;28;20119;-53
2020/12/24 05:06:45;;;;;;;60.50;18.42;;;8.00;99.90;;;;;;5068719;28;20456;-53
2020/12/24 05:09:11;;;;;;;60.08;19.08;;;8.00;99.90;;;;;;5068392;28;20054;-55
2020/12/24 05:11:37;;;;;;;67.53;18.92;;;8.10;99.90;;;;;;5069026;28;20368;-51
2020/12/24 05:14:17;;;;;;;67.40;19.65;;;8.10;99.90;;;;;;5069098;28;20033;-54
2020/12/24 05:17:05;;;;;;;57.75;19.00;;;8.10;99.90;;;;;;5068677;28;20494;-56
2020/12/24 05:19:36;;;;;;;97.57;21.70;;;8.10;99.90;;;;;;5069178;28;20036;-54
2020/12/24 05:22:22;;;;;;;82.13;20.88;;;8.10;99.90;;;;;;5068622;28;20032;-55
2020/12/24 05:24:48;;;;;;;79.60;19.88;;;8.10;99.90;;;;;;5068603;28;20046;-57
2020/12/24 05:27:16;;;;;;;57.67;20.88;;;8.10;99.90;;;;;;5068616;28;20391;-57
2020/12/24 05:29:44;;;;;;;66.85;19.48;;;8.00;99.90;;;;;;5068416;28;20132;-56
2020/12/24 05:32:10;;;;;;;56.63;19.27;;;8.10;99.90;;;;;;5068415;28;20416;-56
2020/12/24 05:34:37;;;;;;;58.08;19.65;;;8.10;99.90;;;;;;5068733;28;20025;-56
2020/12/24 05:37:10;;;;;;;45.05;18.50;;;8.10;99.90;;;;;;5068481;28;20058;-55
2020/12/24 05:39:36;;;;;;;58.65;18.80;;;8.10;99.90;;;;;;5068419;28;20023;-56
2020/12/24 05:42:03;;;;;;;69.00;19.52;;;8.10;99.90;;;;;;5068452;28;20040;-53
2020/12/24 05:44:29;;;;;;;50.03;19.08;;;8.10;99.90;;;;;;5068552;28;20071;-54
2020/12/24 05:46:55;;;;;;;45.42;17.60;;;8.10;99.90;;;;;;5070160;28;20052;-53
2020/12/24 05:49:22;;;;;;;49.60;17.90;;;8.00;99.90;;;;;;5072698;28;20040;-55
2020/12/24 05:51:50;;;;;;;53.53;18.92;;;8.10;99.90;;;;;;5072650;28;20115;-50
2020/12/24 05:54:18;;;;;;;53.83;15.85;;;8.10;99.90;;;;;;5072345;28;20025;-51
2020/12/24 05:56:45;;;;;;;57.95;16.98;;;8.10;99.90;;;;;;5072278;28;20090;-54
2020/12/24 05:59:19;;;;;;;49.85;17.80;;;8.10;99.90;;;;;;5072224;28;20107;-55
2020/12/24 06:01:57;;;;;;;51.00;17.58;;;8.10;99.90;;;;;;5072166;28;20107;-53
2020/12/24 06:04:45;;;;;;;43.78;17.95;;;8.10;99.90;;;;;;5072393;28;20094;-53
2020/12/24 06:07:20;;;;;;;51.83;18.65;;;8.10;99.90;;;;;;5071985;28;20360;-53
2020/12/24 06:09:51;;;;;;;49.75;16.48;;;8.10;99.90;;;;;;5071682;28;20385;-54
2020/12/24 06:12:22;;;;;;;46.28;17.15;;;8.10;99.90;;;;;;5072057;28;20028;-54
2020/12/24 06:14:50;;;;;;;54.65;17.42;;;8.10;99.90;;;;;;5072124;28;20119;-56
2020/12/24 06:17:18;;;;;;;49.10;16.73;;;8.10;99.90;;;;;;5072164;28;20067;-56
2020/12/24 06:19:44;;;;;;;48.30;18.05;;;8.10;99.90;;;;;;5071800;28;20036;-56
2020/12/24 06:22:10;;;;;;;46.97;17.50;;;8.10;99.90;;;;;;5071703;28;20553;-57
2020/12/24 06:24:59;;;;;;;49.55;15.88;;;8.10;99.90;;;;;;5071890;28;20031;-54
2020/12/24 06:27:32;;;;;;;49.05;18.42;;;8.10;99.90;;;;;;5071584;28;20564;-54
2020/12/24 06:30:03;;;;;;;63.88;18.23;;;8.10;99.90;;;;;;5071518;28;20523;-54
2020/12/24 06:32:33;;;;;;;54.42;18.90;;;8.10;99.90;;;;;;5071431;28;20045;-57
2020/12/24 06:34:59;;;;;;;56.67;17.80;;;8.10;99.90;;;;;;5071746;28;20032;-54
2020/12/24 06:37:24;;;;;;;59.97;18.48;;;8.10;99.90;;;;;;5071559;28;20408;-52
2020/12/24 06:39:52;;;;;;;59.72;19.13;;;8.10;99.90;;;;;;5071433;28;20047;-55
2020/12/24 06:42:36;;;;;;;86.25;20.05;;;8.10;99.90;;;;;;5071732;28;20062;-51
2020/12/24 06:45:07;;;;;;;73.22;18.02;;;8.00;99.90;;;;;;5071232;28;20693;-54
2020/12/24 06:47:34;;;;;;;56.00;18.05;;;8.00;99.90;;;;;;5071509;28;20028;-54
2020/12/24 06:49:59;;;;;;;59.90;19.17;;;8.00;99.90;;;;;;5071167;28;20094;-48
2020/12/24 06:52:29;;;;;;;50.20;16.88;;;7.90;99.90;;;;;;5071348;28;20029;-51
2020/12/24 06:55:14;;;;;;;58.88;17.88;;;8.00;99.90;;;;;;5071586;28;20029;-48
2020/12/24 06:57:49;;;;;;;57.05;17.00;;;8.00;99.90;;;;;;5070833;28;20601;-54
2020/12/24 07:00:20;;;;;;;62.55;16.48;;;8.00;99.90;;;;;;5053325;28;20516;-55
2020/12/24 07:02:50;;;;;;;57.72;17.52;;;8.00;99.90;;;;;;5071394;28;20025;-53
2020/12/24 07:05:42;;;;;;;46.70;15.60;;;8.00;99.90;;;;;;5067595;28;20036;-50
2020/12/24 07:08:32;;;;;;;51.95;16.80;;;8.00;99.90;;;;;;5071188;28;20029;-52
2020/12/24 07:11:00;;;;;;;50.13;15.05;;;8.00;99.90;;;;;;5067769;22;20089;-55
2020/12/24 07:13:40;;;;;;;51.03;17.95;;;8.10;99.90;;;;;;5050015;28;20033;-52
2020/12/24 07:16:07;;;;;;;44.63;16.35;;;8.00;99.90;;;;;;5048147;28;20040;-54
2020/12/24 07:18:38;;;;;;;49.50;16.98;;;8.00;99.90;;;;;;5049863;28;20067;-49
2020/12/24 07:21:06;;;;;;;52.22;17.30;;;8.10;99.90;;;;;;5050908;28;20539;-55
2020/12/24 07:23:37;;;;;;;45.80;16.48;;;8.10;99.90;;;;;;5055128;28;20059;-55
2020/12/24 07:26:13;;;;;;;43.53;14.82;;;8.10;99.90;;;;;;5070550;28;20108;-54
2020/12/24 07:28:40;;;;;;;52.80;15.88;;;8.10;99.90;;;;;;5064745;28;20032;-55
2020/12/24 07:31:08;;;;;;;50.22;16.52;;;8.10;99.90;;;;;;5062523;28;20028;-55
2020/12/24 07:33:34;;;;;;;52.60;17.38;;;8.10;99.90;;;;;;5057800;28;20178;-55
2020/12/24 07:36:01;;;;;;;42.00;15.57;;;8.10;99.90;;;;;;5050499;28;20356;-56
2020/12/24 07:38:29;;;;;;;48.60;16.92;;;8.20;99.90;;;;;;5050255;28;20433;-50
2020/12/24 07:40:55;;;;;;;59.38;16.98;;;8.10;99.90;;;;;;5050396;28;20086;-53
2020/12/24 07:43:21;;;;;;;44.25;15.27;;;8.10;99.90;;;;;;5050368;28;20041;-55
2020/12/24 07:45:47;;;;;;;50.85;17.70;;;8.10;99.90;;;;;;5048772;28;20040;-52
2020/12/24 07:48:21;;;;;;;54.97;16.15;;;8.20;99.90;;;;;;5050294;28;20108;-55
2020/12/24 07:50:49;;;;;;;40.33;14.35;;;8.20;99.90;;;;;;5050181;28;20048;-56
2020/12/24 07:53:20;;;;;;;54.15;16.27;;;8.20;99.90;;;;;;5050087;28;20033;-55
2020/12/24 07:55:46;;;;;;;53.33;17.52;;;8.20;99.90;;;;;;5056923;28;20119;-55
2020/12/24 07:58:14;;;;;;;53.65;16.05;;;8.20;99.90;;;;;;5070085;28;20032;-57
2020/12/24 08:00:48;;;;;;;46.92;17.02;;;8.20;99.90;;;;;;5064696;28;20115;-56
2020/12/24 08:03:15;;;;;;;68.43;16.92;;;8.30;99.90;;;;;;5058578;28;20044;-56
2020/12/24 08:05:45;;;;;;;43.60;15.98;;;8.20;99.90;;;;;;5045571;28;20485;-53
2020/12/24 08:08:12;;;;;;;44.60;16.15;;;8.20;99.90;;;;;;5050024;28;20029;-55
2020/12/24 08:10:39;;;;;;;50.17;18.00;;;8.30;99.90;;;;;;5049029;28;20115;-50
2020/12/24 08:13:06;;;;;;;49.50;15.95;;;8.30;99.90;;;;;;5049831;28;20041;-57
2020/12/24 08:15:34;;;;;;;52.03;18.58;;;8.30;99.90;;;;;;5049695;28;20079;-53
2020/12/24 08:18:07;;;;;;;50.83;18.92;;;8.30;99.90;;;;;;5049596;28;20051;-54
2020/12/24 08:20:57;;;;;;;45.45;17.65;;;8.30;99.90;;;;;;5049627;28;20052;-55
2020/12/24 08:23:47;;;;;;;47.13;17.33;;;8.30;99.90;;;;;;5049670;28;20028;-54
2020/12/24 08:26:17;;;;;;;44.63;18.15;;;8.30;99.90;;;;;;5049587;28;20036;-54
2020/12/24 08:28:50;;;;;;;48.55;16.02;;;8.30;99.90;;;;;;5049614;28;20118;-54
2020/12/24 08:31:18;;;;;;;47.35;17.73;;;8.30;99.90;;;;;;5049140;28;20040;-55
2020/12/24 08:33:49;;;;;;;44.63;17.65;;;8.30;99.90;;;;;;5049000;28;20037;-57
2020/12/24 08:36:29;;;;;;;48.58;17.08;;;8.30;99.90;;;;;;5045665;28;20579;-55
2020/12/24 08:39:06;;;;;;;47.78;17.27;;;8.30;99.90;;;;;;5048557;28;20348;-52
2020/12/24 08:41:35;;;;;;;43.08;18.42;;;8.30;99.90;;;;;;5042983;28;20279;-55
2020/12/24 08:44:04;;;;;;;60.03;24.88;;;8.30;99.90;;;;;;5048340;28;20021;-57
2020/12/24 08:46:30;;;;;;;49.20;19.80;;;8.30;99.90;;;;;;5029904;28;20028;-56
2020/12/24 08:48:55;;;;;;;62.47;18.95;;;8.30;99.90;;;;;;5027167;28;20045;-56
2020/12/24 08:51:22;;;;;;;50.38;17.77;;;8.30;99.90;;;;;;5029455;28;20488;-53
2020/12/24 08:53:49;;;;;;;54.10;18.42;;;8.20;99.90;;;;;;5048634;28;20491;-53
2020/12/24 08:56:16;;;;;;;46.85;16.75;;;8.30;99.90;;;;;;5048033;28;20044;-54
2020/12/24 08:58:50;;;;;;;49.88;18.25;;;8.30;99.90;;;;;;5048502;28;20056;-53
2020/12/24 09:01:21;;;;;;;59.10;17.42;;;8.20;99.90;;;;;;5047789;28;20451;-52
2020/12/24 09:03:47;;;;;;;56.38;17.52;;;8.20;99.90;;;;;;5048774;28;20037;-57
2020/12/24 09:06:18;;;;;;;51.08;18.88;;;8.20;99.90;;;;;;5048002;28;20029;-52
2020/12/24 09:08:51;;;;;;;59.35;18.55;;;8.10;99.90;;;;;;5048179;28;20108;-51
2020/12/24 09:11:32;;;;;;;51.03;17.98;;;8.10;99.90;;;;;;5047655;28;20049;-54
2020/12/24 09:14:05;;;;;;;41.78;16.52;;;8.20;99.90;;;;;;5048417;28;20522;-55
2020/12/24 09:16:34;;;;;;;51.70;17.42;;;8.20;99.90;;;;;;5047689;28;20507;-54
2020/12/24 09:19:09;;;;;;;47.83;17.83;;;8.20;99.90;;;;;;5048404;28;20025;-55
2020/12/24 09:21:36;;;;;;;31.17;13.20;;;8.30;99.90;;;;;;5048294;28;20082;-51
2020/12/24 09:24:10;;;;;;;33.42;14.18;;;8.30;99.90;;;;;;5048127;28;20029;-52
2020/12/24 09:26:45;;;;;;;30.48;12.90;;;8.30;99.90;;;;;;5048056;28;20507;-55
2020/12/24 09:29:11;;;;;;;26.87;9.90;;;8.40;99.90;;;;;;5048631;28;20468;-53
2020/12/24 09:31:37;;;;;;;22.55;9.50;;;8.40;99.90;;;;;;5047135;28;20311;-57
2020/12/24 09:34:03;;;;;;;19.35;8.68;;;8.40;99.90;;;;;;5047288;28;20033;-54
2020/12/24 09:36:29;;;;;;;25.15;9.70;;;8.40;99.90;;;;;;5047284;28;20492;-57
2020/12/24 09:38:54;;;;;;;27.02;11.02;;;8.40;99.90;;;;;;5047844;28;20021;-55
2020/12/24 09:41:20;;;;;;;23.52;10.55;;;8.50;99.90;;;;;;5047910;28;20032;-55
2020/12/24 09:43:46;;;;;;;25.23;10.50;;;8.50;99.90;;;;;;5047253;28;20120;-52
2020/12/24 09:46:15;;;;;;;16.35;7.45;;;8.50;99.90;;;;;;5047793;28;20066;-54
2020/12/24 09:48:41;;;;;;;18.67;7.68;;;8.50;99.90;;;;;;5047933;28;20128;-55
2020/12/24 09:51:07;;;;;;;18.35;8.40;;;8.40;99.90;;;;;;5048203;28;20115;-54
2020/12/24 09:53:33;;;;;;;20.98;10.00;;;8.50;99.90;;;;;;5047421;28;20070;-55
2020/12/24 09:56:00;;;;;;;19.13;9.27;;;8.60;99.90;;;;;;5047277;28;20036;-55
2020/12/24 09:58:26;;;;;;;23.95;11.30;;;8.60;99.90;;;;;;5047822;28;20388;-54
2020/12/24 10:00:51;;;;;;;18.10;10.63;;;8.60;99.90;;;;;;5046244;28;20032;-55
2020/12/24 10:03:17;;;;;;;21.75;12.30;;;8.60;99.90;;;;;;5046503;28;20300;-55
2020/12/24 10:05:43;;;;;;;20.80;12.40;;;8.60;99.90;;;;;;5044826;28;20025;-53
2020/12/24 10:08:08;;;;;;;23.17;12.93;;;8.70;99.90;;;;;;5044763;28;20029;-55
2020/12/24 10:10:34;;;;;;;26.77;16.75;;;8.70;99.90;;;;;;5045256;28;20045;-52
2020/12/24 10:13:00;;;;;;;32.03;16.63;;;8.70;99.90;;;;;;5043708;28;20132;-58
2020/12/24 10:15:26;;;;;;;33.30;16.55;;;8.80;99.90;;;;;;5044982;28;20033;-57
2020/12/24 10:17:51;;;;;;;36.25;18.85;;;8.80;99.90;;;;;;5044699;28;20033;-58
2020/12/24 10:20:17;;;;;;;29.85;16.85;;;8.80;99.90;;;;;;5046499;28;20032;-58
2020/12/24 10:22:43;;;;;;;36.15;18.13;;;8.90;99.90;;;;;;5046412;28;20032;-55
2020/12/24 10:25:09;;;;;;;34.47;19.35;;;8.90;99.90;;;;;;5046669;28;20082;-56
2020/12/24 10:27:34;;;;;;;29.40;17.58;;;8.90;99.90;;;;;;5046735;28;20017;-55
2020/12/24 10:30:00;;;;;;;38.60;19.15;;;9.00;99.90;;;;;;5047188;28;20124;-52
2020/12/24 10:32:26;;;;;;;36.20;18.67;;;8.90;99.90;;;;;;5047756;28;20037;-52
2020/12/24 10:34:52;;;;;;;31.80;17.80;;;9.00;99.90;;;;;;5045732;28;20033;-54
2020/12/24 10:37:17;;;;;;;35.47;17.55;;;9.00;99.90;;;;;;5042538;28;20124;-50
2020/12/24 10:39:43;;;;;;;36.90;16.90;;;9.00;99.90;;;;;;5050918;28;20029;-54
2020/12/24 10:42:11;;;;;;;40.67;19.05;;;9.00;99.90;;;;;;5051449;28;20024;-56
2020/12/24 10:44:36;;;;;;;32.85;17.42;;;9.00;99.90;;;;;;5050058;28;20047;-48
2020/12/24 10:47:02;;;;;;;26.08;14.27;;;9.10;99.90;;;;;;5051051;28;20024;-53
2020/12/24 10:49:28;;;;;;;33.22;15.57;;;9.00;99.90;;;;;;5050867;28;20045;-55
2020/12/24 10:51:54;;;;;;;21.30;10.98;;;9.00;99.90;;;;;;5050859;28;20036;-54
2020/12/24 10:54:20;;;;;;;21.70;12.15;;;9.10;99.90;;;;;;5049912;28;20037;-55
2020/12/24 10:56:52;;;;;;;27.73;12.07;;;9.00;99.90;;;;;;5048482;28;20499;-52
2020/12/24 10:59:19;;;;;;;16.00;9.93;;;9.00;99.90;;;;;;5047304;28;20021;-51
2020/12/24 11:01:48;;;;;;;17.80;9.77;;;9.00;99.90;;;;;;5050465;28;20039;-52
2020/12/24 11:04:15;;;;;;;15.73;6.78;;;9.10;99.90;;;;;;5050042;28;20067;-57
2020/12/24 11:06:43;;;;;;;12.75;6.70;;;9.10;99.90;;;;;;5049147;28;20036;-55
2020/12/24 11:09:10;;;;;;;13.32;7.13;;;9.00;99.90;;;;;;5050560;28;20063;-52
2020/12/24 11:11:36;;;;;;;11.48;7.45;;;9.00;99.90;;;;;;5049943;28;20056;-56
2020/12/24 11:14:03;;;;;;;13.88;7.35;;;8.90;99.90;;;;;;5045952;28;20075;-55
2020/12/24 11:16:29;;;;;;;34.75;13.07;;;9.00;99.90;;;;;;5049011;28;20052;-56
2020/12/24 11:18:54;;;;;;;21.38;9.70;;;9.00;99.90;;;;;;5049045;28;20040;-57
2020/12/24 11:21:20;;;;;;;28.88;11.55;;;9.00;99.90;;;;;;5048941;28;20033;-54
2020/12/24 11:23:47;;;;;;;35.42;14.35;;;9.00;99.90;;;;;;5048692;28;20083;-54
2020/12/24 11:26:25;;;;;;;59.13;23.52;;;9.00;99.90;;;;;;5048537;28;20035;-53
2020/12/24 11:28:52;;;;;;;65.95;25.23;;;9.00;99.90;;;;;;5048343;28;20025;-52
2020/12/24 11:31:25;;;;;;;51.03;22.65;;;9.00;99.90;;;;;;5047962;28;20033;-53
2020/12/24 11:33:52;;;;;;;48.50;22.45;;;9.10;99.90;;;;;;5047479;28;20039;-51
2020/12/24 11:36:18;;;;;;;44.88;21.45;;;9.10;99.90;;;;;;5048090;28;20033;-55
2020/12/24 11:38:44;;;;;;;46.75;21.85;;;9.10;99.90;;;;;;5048910;28;20497;-51
2020/12/24 11:41:15;;;;;;;38.88;18.85;;;9.10;99.90;;;;;;5049821;28;20040;-53
2020/12/24 11:43:41;;;;;;;38.33;21.55;;;9.10;99.90;;;;;;5049373;28;20108;-53
2020/12/24 11:46:12;;;;;;;43.42;22.40;;;9.20;99.90;;;;;;5049687;28;20443;-53
2020/12/24 11:48:39;;;;;;;41.45;21.67;;;9.20;99.90;;;;;;5049339;28;20406;-57
2020/12/24 11:51:12;;;;;;;46.55;22.92;;;9.30;99.90;;;;;;5049372;28;20492;-57
2020/12/24 11:53:39;;;;;;;46.58;23.30;;;9.30;99.90;;;;;;5047751;28;20493;-57
2020/12/24 11:56:05;;;;;;;50.03;23.20;;;9.30;99.90;;;;;;5048185;28;20380;-57
2020/12/24 11:58:31;;;;;;;53.08;25.00;;;9.40;99.90;;;;;;5049471;28;20040;-55
2020/12/24 12:00:57;;;;;;;53.33;25.25;;;9.30;99.90;;;;;;5048583;28;20045;-55
2020/12/24 12:03:23;;;;;;;45.58;25.17;;;9.30;99.90;;;;;;5048727;28;20396;-53
2020/12/24 12:05:48;;;;;;;46.78;25.00;;;9.40;99.90;;;;;;5048599;28;20071;-55
2020/12/24 12:08:17;;;;;;;60.88;27.83;;;9.40;99.90;;;;;;5050379;28;20028;-55
2020/12/24 12:10:42;;;;;;;52.67;26.77;;;9.40;99.90;;;;;;5047987;28;20497;-54
2020/12/24 12:13:08;;;;;;;57.80;27.38;;;9.50;99.90;;;;;;5049915;28;20021;-53
2020/12/24 12:15:34;;;;;;;49.25;25.80;;;9.50;99.90;;;;;;5048305;28;20447;-51
2020/12/24 12:18:00;;;;;;;48.15;25.52;;;9.50;99.90;;;;;;5047474;28;20455;-55
2020/12/24 12:20:26;;;;;;;42.33;23.38;;;9.50;99.90;;;;;;5047592;28;20063;-50
2020/12/24 12:22:52;;;;;;;54.53;25.77;;;9.50;99.90;;;;;;5046588;28;20037;-52
2020/12/24 12:25:19;;;;;;;49.70;25.27;;;9.50;99.90;;;;;;5048091;28;20079;-54
2020/12/24 12:27:47;;;;;;;55.15;25.25;;;9.60;99.90;;;;;;5047398;28;20029;-54
2020/12/24 12:30:13;;;;;;;55.10;25.20;;;9.60;99.90;;;;;;5048355;28;20041;-56
2020/12/24 12:32:39;;;;;;;53.78;24.73;;;9.70;99.90;;;;;;5047425;28;20029;-54
2020/12/24 12:35:06;;;;;;;88.45;28.13;;;9.60;99.90;;;;;;5030931;28;20503;-58
2020/12/24 12:37:35;;;;;;;57.05;24.40;;;9.70;99.90;;;;;;5049177;28;20025;-56
2020/12/24 12:40:04;;;;;;;56.88;23.98;;;9.70;99.90;;;;;;5048298;28;20044;-54
2020/12/24 12:42:30;;;;;;;56.17;25.70;;;9.80;99.90;;;;;;5047959;28;20135;-53
2020/12/24 12:44:56;;;;;;;59.47;25.95;;;9.80;99.90;;;;;;5048621;28;20133;-54